createdAt,value
2022-11-19T00:00:30.840Z,78.85
2022-11-19T00:05:32.154Z,79.09
2022-11-19T00:10:35.848Z,77.62
2022-11-19T00:15:37.391Z,76.56
2022-11-19T00:20:38.675Z,76.85
2022-11-19T00:25:39.962Z,77.12
2022-11-19T00:30:48.029Z,77.08
2022-11-19T00:35:49.629Z,77.51
2022-11-19T00:40:51.056Z,78.82
2022-11-19T00:45:52.358Z,77.28
2022-11-19T00:50:53.729Z,77.07
2022-11-19T00:55:55.176Z,77.41
2022-11-19T01:00:57.105Z,76.86
2022-11-19T01:05:58.582Z,76.09
2022-11-19T01:11:12.423Z,75.73
2022-11-19T01:16:22.818Z,75.44
2022-11-19T01:21:27.120Z,76.64
2022-11-19T01:26:28.741Z,76.40
2022-11-19T01:31:30.896Z,75.29
2022-11-19T01:36:32.211Z,75.49
2022-11-19T01:41:33.729Z,76.58
2022-11-19T01:46:38.050Z,76.59
2022-11-19T01:51:51.445Z,74.50
2022-11-19T01:56:56.331Z,75.62
2022-11-19T02:01:57.561Z,75.59
2022-11-19T02:06:58.850Z,75.54
2022-11-19T02:12:09.257Z,75.04
2022-11-19T02:17:29.507Z,75.18
2022-11-19T02:22:36.837Z,75.30
2022-11-19T02:28:08.289Z,76.09
2022-11-19T02:33:24.850Z,76.26
2022-11-19T02:38:50.471Z,75.58
2022-11-19T02:44:21.367Z,76.94
2022-11-19T02:49:28.719Z,75.86
2022-11-19T02:54:30.124Z,76.69
2022-11-19T03:00:24.549Z,76.65
2022-11-19T03:05:30.572Z,76.89
2022-11-19T03:10:44.014Z,76.21
2022-11-19T03:16:06.927Z,76.73
2022-11-19T03:21:15.785Z,77.18
2022-11-19T03:26:28.481Z,76.78
2022-11-19T03:31:32.550Z,77.02
2022-11-19T03:36:37.817Z,77.97
2022-11-19T03:41:41.769Z,78.30
2022-11-19T03:46:45.645Z,77.76
2022-11-19T03:51:53.825Z,78.10
2022-11-19T03:56:57.002Z,78.48
2022-11-19T04:02:03.258Z,78.66
2022-11-19T04:07:05.714Z,78.75
2022-11-19T04:12:16.165Z,78.38
2022-11-19T04:17:19.256Z,78.82
2022-11-19T04:22:20.580Z,78.96
2022-11-19T04:27:21.813Z,79.23
2022-11-19T04:32:23.083Z,80.33
2022-11-19T04:37:24.341Z,80.81
2022-11-19T04:42:25.684Z,80.40
2022-11-19T04:47:26.932Z,79.99
2022-11-19T04:52:28.203Z,78.17
2022-11-19T04:57:29.550Z,78.68
2022-11-19T05:02:30.821Z,78.81
2022-11-19T05:07:32.125Z,78.27
2022-11-19T05:12:33.447Z,78.34
2022-11-19T05:17:34.809Z,78.56
2022-11-19T05:22:36.116Z,77.53
2022-11-19T05:27:37.403Z,78.60
2022-11-19T05:32:38.870Z,78.44
2022-11-19T05:37:40.263Z,77.94
2022-11-19T05:42:41.646Z,77.59
2022-11-19T05:47:48.322Z,78.08
2022-11-19T05:52:50.509Z,78.03
2022-11-19T05:57:51.796Z,77.24
2022-11-19T06:02:53.177Z,77.22
2022-11-19T06:07:54.560Z,77.75
2022-11-19T06:12:55.885Z,78.19
2022-11-19T06:17:57.539Z,78.00
2022-11-19T06:22:59.016Z,78.00
2022-11-19T06:28:00.318Z,77.82
2022-11-19T06:33:01.711Z,77.69
2022-11-19T06:38:03.123Z,77.41
2022-11-19T06:43:05.079Z,78.56
2022-11-19T06:48:06.370Z,78.22
2022-11-19T06:53:07.672Z,77.59
2022-11-19T06:58:09.083Z,77.95
2022-11-19T07:03:10.372Z,76.96
2022-11-19T07:08:11.684Z,77.15
2022-11-19T07:13:13.144Z,78.02
2022-11-19T07:18:14.508Z,77.38
2022-11-19T07:23:15.840Z,77.47
2022-11-19T07:28:17.171Z,78.37
2022-11-19T07:33:18.531Z,77.59
2022-11-19T07:38:19.906Z,78.22
2022-11-19T07:43:21.867Z,77.75
2022-11-19T07:48:23.196Z,78.21
2022-11-19T07:53:24.682Z,78.44
2022-11-19T07:58:26.056Z,77.36
2022-11-19T08:03:27.396Z,77.74
2022-11-19T08:08:28.758Z,77.08
2022-11-19T08:13:30.238Z,77.19
2022-11-19T08:18:32.206Z,78.02
2022-11-19T08:23:34.197Z,78.25
2022-11-19T08:28:35.593Z,78.98
2022-11-19T08:33:36.901Z,78.32
2022-11-19T08:38:39.008Z,77.33
2022-11-19T08:43:40.965Z,78.17
2022-11-19T08:48:42.327Z,78.33
2022-11-19T08:53:43.717Z,78.43
2022-11-19T08:58:45.306Z,78.92
2022-11-19T09:03:47.389Z,77.37
2022-11-19T09:08:48.719Z,77.93
2022-11-19T09:13:50.111Z,76.62
2022-11-19T09:18:51.512Z,76.83
2022-11-19T09:23:52.933Z,77.29
2022-11-19T09:28:54.299Z,77.30
2022-11-19T09:33:55.748Z,76.54
2022-11-19T09:38:58.319Z,77.22
2022-11-19T09:44:08.685Z,78.04
2022-11-19T09:49:14.358Z,76.78
2022-11-19T09:54:19.285Z,77.03
2022-11-19T09:59:28.172Z,77.12
2022-11-19T10:04:33.316Z,78.03
2022-11-19T10:10:06.471Z,76.71
2022-11-19T10:15:27.146Z,76.53
2022-11-19T10:21:08.901Z,77.09
2022-11-19T10:26:14.945Z,75.74
2022-11-19T10:31:22.286Z,77.02
2022-11-19T10:36:41.120Z,76.96
2022-11-19T10:41:49.325Z,77.59
2022-11-19T10:46:50.879Z,76.93
2022-11-19T10:51:52.266Z,77.12
2022-11-19T10:56:55.360Z,76.61
2022-11-19T11:02:03.836Z,75.55
2022-11-19T11:07:05.543Z,76.04
2022-11-19T11:12:35.515Z,75.29
2022-11-19T11:17:38.599Z,75.31
2022-11-19T11:22:40.149Z,75.30
2022-11-19T11:27:41.504Z,75.48
2022-11-19T11:32:43.307Z,76.15
2022-11-19T11:37:44.764Z,76.23
2022-11-19T11:42:46.460Z,75.33
2022-11-19T11:47:47.903Z,74.77
2022-11-19T11:52:54.612Z,76.08
2022-11-19T11:58:05.061Z,75.60
2022-11-19T12:03:10.099Z,76.10
2022-11-19T12:08:54.304Z,76.51
2022-11-19T12:14:05.461Z,76.59
2022-11-19T12:19:33.002Z,75.73
2022-11-19T12:24:56.477Z,75.36
2022-11-19T12:30:10.331Z,76.50
2022-11-19T12:35:33.190Z,75.46
2022-11-19T12:41:08.683Z,75.94
2022-11-19T12:46:19.120Z,75.91
2022-11-19T12:51:42.092Z,75.58
2022-11-19T12:57:02.252Z,75.48
2022-11-19T13:02:15.107Z,75.56
2022-11-19T13:07:27.174Z,75.51
2022-11-19T13:12:43.383Z,75.91
2022-11-19T13:17:49.941Z,75.51
2022-11-19T13:22:55.195Z,75.51
2022-11-19T13:28:06.579Z,74.99
2022-11-19T13:33:17.809Z,74.64
2022-11-19T13:38:36.829Z,74.85
2022-11-19T13:43:57.231Z,75.60
2022-11-19T13:49:04.313Z,75.42
2022-11-19T13:54:07.979Z,74.90
2022-11-19T13:59:25.803Z,74.68
2022-11-19T14:04:36.127Z,75.16
2022-11-19T14:09:56.141Z,76.09
2022-11-19T14:15:42.789Z,74.25
2022-11-19T14:21:04.301Z,74.26
2022-11-19T14:26:21.827Z,73.52
2022-11-19T14:31:23.395Z,73.11
2022-11-19T14:36:55.302Z,72.65
2022-11-19T14:42:18.103Z,73.26
2022-11-19T14:47:22.149Z,73.49
2022-11-19T14:52:30.683Z,73.16
2022-11-19T14:57:41.433Z,73.88
2022-11-19T15:02:46.983Z,72.83
2022-11-19T15:07:55.884Z,72.73
2022-11-19T15:13:18.564Z,72.98
2022-11-19T15:18:44.340Z,73.89
2022-11-19T15:23:53.631Z,74.71
2022-11-19T15:29:08.775Z,73.73
2022-11-19T15:34:10.138Z,73.21
2022-11-19T15:39:26.414Z,72.80
2022-11-19T15:44:47.514Z,73.03
2022-11-19T15:49:51.496Z,73.12
2022-11-19T15:55:10.573Z,73.15
2022-11-19T16:00:20.531Z,73.08
2022-11-19T16:05:24.496Z,72.85
2022-11-19T16:10:31.333Z,74.10
2022-11-19T16:15:53.002Z,72.70
2022-11-19T16:20:54.568Z,72.80
2022-11-19T16:26:01.949Z,72.74
2022-11-19T16:31:05.104Z,72.47
2022-11-19T16:36:15.521Z,72.96
2022-11-19T16:41:38.541Z,72.96
2022-11-19T16:46:40.563Z,72.17
2022-11-19T16:51:53.351Z,72.37
2022-11-19T16:56:54.723Z,72.22
2022-11-19T17:01:59.832Z,71.21
2022-11-19T17:07:01.646Z,70.79
2022-11-19T17:12:18.927Z,70.60
2022-11-19T17:17:38.413Z,72.53
2022-11-19T17:22:41.197Z,71.19
2022-11-19T17:27:42.549Z,71.43
2022-11-19T17:32:51.937Z,71.76
2022-11-19T17:37:53.828Z,71.32
2022-11-19T17:43:13.966Z,72.22
2022-11-19T17:48:21.938Z,71.50
2022-11-19T17:53:23.510Z,71.53
2022-11-19T17:58:24.849Z,71.71
2022-11-19T18:03:26.427Z,71.91
2022-11-19T18:08:28.289Z,71.24
2022-11-19T18:13:31.961Z,71.17
2022-11-19T18:18:33.267Z,70.64
2022-11-19T18:23:34.605Z,71.20
2022-11-19T18:28:35.923Z,71.54
2022-11-19T18:33:37.338Z,71.39
2022-11-19T18:38:38.641Z,70.88
2022-11-19T18:43:58.916Z,70.63
2022-11-19T18:49:00.320Z,71.18
2022-11-19T18:54:02.172Z,71.05
2022-11-19T18:59:05.085Z,70.35
2022-11-19T19:04:07.004Z,70.31
2022-11-19T19:09:08.531Z,70.29
2022-11-19T19:14:10.030Z,70.45
2022-11-19T19:19:14.071Z,70.61
2022-11-19T19:24:15.517Z,70.03
2022-11-19T19:29:16.823Z,69.70
2022-11-19T19:34:18.321Z,70.54
2022-11-19T19:39:20.031Z,69.24
2022-11-19T19:44:21.768Z,69.89
2022-11-19T19:49:23.452Z,69.68
2022-11-19T19:54:25.882Z,69.59
2022-11-19T19:59:27.231Z,70.69
2022-11-19T20:04:28.554Z,70.30
2022-11-19T20:09:29.941Z,69.59
2022-11-19T20:14:31.264Z,70.34
2022-11-19T20:19:32.564Z,70.37
2022-11-19T20:24:34.848Z,70.68
2022-11-19T20:29:36.228Z,70.39
2022-11-19T20:34:37.534Z,70.80
2022-11-19T20:39:38.837Z,70.91
2022-11-19T20:44:40.185Z,70.93
2022-11-19T20:49:41.595Z,71.52
2022-11-19T20:54:43.569Z,70.82
2022-11-19T20:59:45.012Z,70.96
2022-11-19T21:04:46.356Z,70.33
2022-11-19T21:09:48.002Z,71.08
2022-11-19T21:14:49.376Z,70.37
2022-11-19T21:19:50.745Z,70.02
2022-11-19T21:24:52.134Z,70.38
2022-11-19T21:29:53.419Z,70.46
2022-11-19T21:34:54.697Z,70.38
2022-11-19T21:39:55.999Z,71.21
2022-11-19T21:44:57.403Z,70.19
2022-11-19T21:50:00.638Z,70.10
2022-11-19T21:55:02.095Z,69.64
2022-11-19T22:00:05.424Z,70.04
2022-11-19T22:05:07.433Z,69.67
2022-11-19T22:10:08.864Z,70.50
2022-11-19T22:15:11.319Z,69.52
2022-11-19T22:20:13.159Z,70.21
2022-11-19T22:25:14.684Z,70.39
2022-11-19T22:30:16.158Z,69.91
2022-11-19T22:35:18.660Z,70.33
2022-11-19T22:40:19.991Z,70.85
2022-11-19T22:45:21.298Z,70.40
2022-11-19T22:50:22.622Z,69.51
2022-11-19T22:55:23.902Z,69.78
2022-11-19T23:00:44.611Z,70.43
2022-11-19T23:05:55.948Z,69.64
2022-11-19T23:10:59.494Z,69.51
2022-11-19T23:16:08.431Z,70.04
2022-11-19T23:21:13.851Z,69.64
2022-11-19T23:26:17.806Z,69.81
2022-11-19T23:31:22.165Z,69.93
2022-11-19T23:36:26.147Z,70.61
2022-11-19T23:41:31.811Z,70.36
2022-11-19T23:46:34.642Z,70.58
2022-11-19T23:51:38.580Z,70.47
2022-11-19T23:56:39.983Z,71.10
